Airport ID:KEDC
Update Time (UTC):10 APR 20 19:34
Wind Speed (Knots):8
Wind Direction (Magnetic):060
Temperature (°C):21
Dew Point (°C):14
Humidity (%):64
Altimeter (inHg):30.04
Density Altitude (Feet):
Visibility (Miles):10
Clouds (Hundreds of feet):CLR
Present Weather:NO PRECIPITATION
METAR:METAR KEDC 101930Z AUTO 08009G14KT 10SM CLR 21/14 A3004 RMK AO2

The data displayed is for advisory purposes only and is not to be used for flight planning or operations.

This page is not automatically refreshed. Reload the page to see current data.